createdAt,value
2018-03-08T00:00:02.553Z,788.37
2018-03-08T00:00:06.453Z,788.34
2018-03-08T00:00:10.351Z,788.33
2018-03-08T00:00:14.243Z,788.34
2018-03-08T00:00:18.256Z,788.3
2018-03-08T00:00:22.204Z,788.29
2018-03-08T00:00:26.427Z,788.37
2018-03-08T00:00:30.645Z,788.36
2018-03-08T00:00:34.877Z,788.38
2018-03-08T00:00:39.100Z,788.38
2018-03-08T00:00:43.334Z,788.39
2018-03-08T00:00:47.349Z,788.37
2018-03-08T00:00:51.357Z,788.38
2018-03-08T00:00:55.577Z,788.38
2018-03-08T00:00:59.694Z,788.41
2018-03-08T00:01:03.954Z,788.39
2018-03-08T00:01:07.855Z,788.41
2018-03-08T00:01:11.763Z,788.36
2018-03-08T00:01:15.873Z,788.39
2018-03-08T00:01:19.772Z,788.4
2018-03-08T00:01:23.783Z,788.41
2018-03-08T00:01:28.002Z,788.44
2018-03-08T00:01:32.142Z,788.43
2018-03-08T00:01:36.369Z,788.41
2018-03-08T00:01:40.647Z,788.41
2018-03-08T00:01:44.761Z,788.4
2018-03-08T00:01:48.771Z,788.41
2018-03-08T00:01:52.985Z,788.41
2018-03-08T00:01:57.108Z,788.39
2018-03-08T00:02:01.330Z,788.4
2018-03-08T00:02:05.444Z,788.42
2018-03-08T00:02:09.678Z,788.42
2018-03-08T00:02:13.688Z,788.41
2018-03-08T00:02:17.800Z,788.41
2018-03-08T00:02:21.814Z,788.44
2018-03-08T00:02:26.031Z,788.46
2018-03-08T00:02:30.080Z,788.41
2018-03-08T00:02:34.299Z,788.44
2018-03-08T00:02:38.417Z,788.44
2018-03-08T00:02:42.638Z,788.42
2018-03-08T00:02:46.648Z,788.43
2018-03-08T00:02:50.658Z,788.43
2018-03-08T00:02:54.783Z,788.44
2018-03-08T00:02:58.674Z,788.44
2018-03-08T00:03:03.045Z,788.43
2018-03-08T00:03:07.263Z,788.44
2018-03-08T00:03:11.207Z,788.42
2018-03-08T00:03:15.211Z,788.43
2018-03-08T00:03:19.103Z,788.42
2018-03-08T00:03:23.215Z,788.43
2018-03-08T00:03:27.230Z,788.45
2018-03-08T00:03:31.235Z,788.43
2018-03-08T00:03:35.185Z,788.37
2018-03-08T00:03:39.405Z,788.4
2018-03-08T00:03:43.428Z,788.41
2018-03-08T00:03:47.545Z,788.42
2018-03-08T00:03:51.662Z,788.42
2018-03-08T00:03:55.566Z,788.39
2018-03-08T00:03:59.673Z,788.41
2018-03-08T00:04:04.224Z,788.42
2018-03-08T00:04:08.339Z,788.4
2018-03-08T00:04:12.460Z,788.4
2018-03-08T00:04:16.687Z,788.42
2018-03-08T00:04:20.908Z,788.41
2018-03-08T00:04:25.141Z,788.38
2018-03-08T00:04:29.363Z,788.4
2018-03-08T00:04:33.477Z,788.4
2018-03-08T00:04:37.478Z,788.33
2018-03-08T00:04:41.803Z,788.37
2018-03-08T00:04:46.024Z,788.38
2018-03-08T00:04:50.025Z,788.39
2018-03-08T00:04:54.137Z,788.36
2018-03-08T00:04:58.356Z,788.37
2018-03-08T00:05:02.682Z,788.36
2018-03-08T00:05:06.787Z,788.36
2018-03-08T00:05:10.900Z,788.36
2018-03-08T00:05:15.228Z,788.37
2018-03-08T00:05:19.347Z,788.34
2018-03-08T00:05:23.460Z,788.38
2018-03-08T00:05:27.472Z,788.4
2018-03-08T00:05:31.589Z,788.36
2018-03-08T00:05:35.922Z,788.38
2018-03-08T00:05:40.040Z,788.29
2018-03-08T00:05:44.201Z,788.35
2018-03-08T00:05:48.328Z,788.33
2018-03-08T00:05:52.432Z,788.29
2018-03-08T00:05:56.656Z,788.29
2018-03-08T00:06:00.811Z,788.3
2018-03-08T00:06:04.835Z,788.33
2018-03-08T00:06:08.958Z,788.32
2018-03-08T00:06:13.079Z,788.3
2018-03-08T00:06:17.085Z,788.32
2018-03-08T00:06:21.318Z,788.25
2018-03-08T00:06:25.536Z,788.28
2018-03-08T00:06:29.545Z,788.26
2018-03-08T00:06:33.667Z,788.28
2018-03-08T00:06:37.672Z,788.25
2018-03-08T00:06:41.575Z,788.28
2018-03-08T00:06:45.904Z,788.25
2018-03-08T00:06:50.016Z,788.24
2018-03-08T00:06:54.133Z,788.27
2018-03-08T00:06:58.373Z,788.24
2018-03-08T00:07:02.691Z,788.29
2018-03-08T00:07:06.812Z,788.27
2018-03-08T00:07:10.708Z,788.23
2018-03-08T00:07:14.820Z,788.25
2018-03-08T00:07:18.824Z,788.25
2018-03-08T00:07:22.837Z,788.26
2018-03-08T00:07:27.163Z,788.25
2018-03-08T00:07:31.275Z,788.28
2018-03-08T00:07:35.390Z,788.25
2018-03-08T00:07:39.608Z,788.23
2018-03-08T00:07:43.932Z,788.24
2018-03-08T00:07:47.937Z,788.19
2018-03-08T00:07:52.044Z,788.23
2018-03-08T00:07:56.166Z,788.19
2018-03-08T00:08:00.277Z,788.14
2018-03-08T00:08:04.616Z,788.18
2018-03-08T00:08:08.845Z,788.16
2018-03-08T00:08:12.853Z,788.21
2018-03-08T00:08:17.083Z,788.19
2018-03-08T00:08:21.316Z,788.19
2018-03-08T00:08:25.533Z,788.15
2018-03-08T00:08:29.646Z,788.18
2018-03-08T00:08:33.866Z,788.18
2018-03-08T00:08:38.093Z,788.15
2018-03-08T00:08:41.989Z,788.15
2018-03-08T00:08:45.778Z,788.16
2018-03-08T00:08:49.784Z,788.12
2018-03-08T00:08:53.787Z,788.13
2018-03-08T00:08:58.066Z,788.14
2018-03-08T00:09:02.180Z,788.13
2018-03-08T00:09:06.510Z,788.14
2018-03-08T00:09:10.528Z,788.11
2018-03-08T00:09:14.534Z,788.1
2018-03-08T00:09:18.543Z,788.11
2018-03-08T00:09:22.764Z,788.11
2018-03-08T00:09:26.995Z,788.09
2018-03-08T00:09:31.104Z,788.07
2018-03-08T00:09:35.324Z,788.08
2018-03-08T00:09:39.452Z,788.11
2018-03-08T00:09:43.347Z,788.07
2018-03-08T00:09:47.353Z,788.06
2018-03-08T00:09:51.465Z,788.04
2018-03-08T00:09:55.695Z,788.05
2018-03-08T00:09:59.928Z,788.04
2018-03-08T00:10:04.339Z,788.06
2018-03-08T00:10:08.562Z,788.03
2018-03-08T00:10:12.781Z,788.02
2018-03-08T00:10:17.001Z,788.02
2018-03-08T00:10:20.909Z,788.02
2018-03-08T00:10:25.137Z,788.01
2018-03-08T00:10:29.262Z,788.02
2018-03-08T00:10:33.159Z,788.01
2018-03-08T00:10:37.276Z,787.97
2018-03-08T00:10:41.395Z,787.97
2018-03-08T00:10:45.740Z,787.98
2018-03-08T00:10:49.864Z,787.95
2018-03-08T00:10:53.976Z,787.92
2018-03-08T00:10:58.088Z,787.96
2018-03-08T00:11:02.547Z,787.94
2018-03-08T00:11:06.663Z,787.91
2018-03-08T00:11:10.666Z,787.92
2018-03-08T00:11:14.672Z,787.94
2018-03-08T00:11:19.008Z,787.94
2018-03-08T00:11:23.229Z,787.91
2018-03-08T00:11:27.563Z,787.89
2018-03-08T00:11:31.784Z,787.91
2018-03-08T00:11:36.001Z,787.85
2018-03-08T00:11:40.221Z,787.86
2018-03-08T00:11:44.230Z,787.92
2018-03-08T00:11:48.448Z,787.87
2018-03-08T00:11:52.346Z,787.85
2018-03-08T00:11:56.355Z,787.84
2018-03-08T00:12:00.699Z,787.84
2018-03-08T00:12:05.283Z,787.82
2018-03-08T00:12:09.297Z,787.81
2018-03-08T00:12:13.405Z,787.76
2018-03-08T00:12:17.626Z,787.77
2018-03-08T00:12:21.739Z,787.76
2018-03-08T00:12:25.744Z,787.74
2018-03-08T00:12:30.082Z,787.71
2018-03-08T00:12:34.187Z,787.74
2018-03-08T00:12:38.410Z,787.72
2018-03-08T00:12:42.635Z,787.69
2018-03-08T00:12:46.748Z,787.77
2018-03-08T00:12:50.765Z,787.77
2018-03-08T00:12:54.978Z,787.73
2018-03-08T00:12:59.097Z,787.71
2018-03-08T00:13:03.398Z,787.72
2018-03-08T00:13:07.297Z,787.7
2018-03-08T00:13:11.314Z,787.68
2018-03-08T00:13:15.838Z,787.69
2018-03-08T00:13:20.222Z,787.62
2018-03-08T00:13:24.441Z,787.6
2018-03-08T00:13:28.447Z,787.63
2018-03-08T00:13:32.350Z,787.64
2018-03-08T00:13:36.355Z,787.65
2018-03-08T00:13:40.569Z,787.66
2018-03-08T00:13:44.786Z,787.65
2018-03-08T00:13:48.904Z,787.65
2018-03-08T00:13:53.019Z,787.63
2018-03-08T00:13:57.029Z,787.61
2018-03-08T00:14:01.266Z,787.62
2018-03-08T00:14:05.160Z,787.63
2018-03-08T00:14:09.061Z,787.59
2018-03-08T00:14:13.288Z,787.61
2018-03-08T00:14:17.404Z,787.59
2018-03-08T00:14:21.410Z,787.54
2018-03-08T00:14:25.423Z,787.59
2018-03-08T00:14:29.424Z,787.56
2018-03-08T00:14:33.534Z,787.59
2018-03-08T00:14:37.763Z,787.57
2018-03-08T00:14:41.885Z,787.58
2018-03-08T00:14:46.003Z,787.57
2018-03-08T00:14:50.009Z,787.58
2018-03-08T00:14:54.241Z,787.57
2018-03-08T00:14:58.461Z,787.57
2018-03-08T00:15:02.690Z,787.55
2018-03-08T00:15:06.916Z,787.58
2018-03-08T00:15:10.811Z,787.56
2018-03-08T00:15:14.939Z,787.53
2018-03-08T00:15:19.268Z,787.53
2018-03-08T00:15:23.380Z,787.51
2018-03-08T00:15:27.599Z,787.47
2018-03-08T00:15:31.715Z,787.47
2018-03-08T00:15:35.828Z,787.46
2018-03-08T00:15:40.050Z,787.51
2018-03-08T00:15:44.158Z,787.47
2018-03-08T00:15:48.384Z,787.46
2018-03-08T00:15:52.713Z,787.47
2018-03-08T00:15:56.944Z,787.48
2018-03-08T00:16:01.058Z,787.45
2018-03-08T00:16:05.534Z,787.45
2018-03-08T00:16:09.754Z,787.46
2018-03-08T00:16:13.759Z,787.45
2018-03-08T00:16:17.766Z,787.45
2018-03-08T00:16:21.917Z,787.45
2018-03-08T00:16:25.919Z,787.41
2018-03-08T00:16:30.029Z,787.41
2018-03-08T00:16:34.040Z,787.41
2018-03-08T00:16:38.048Z,787.38
2018-03-08T00:16:42.163Z,787.37
2018-03-08T00:16:46.059Z,787.37
2018-03-08T00:16:49.961Z,787.38
2018-03-08T00:16:53.975Z,787.37
2018-03-08T00:16:58.201Z,787.38
2018-03-08T00:17:02.533Z,787.39
2018-03-08T00:17:06.659Z,787.33
2018-03-08T00:17:10.789Z,787.36
2018-03-08T00:17:15.085Z,787.37
2018-03-08T00:17:19.207Z,787.36
2018-03-08T00:17:23.536Z,787.35
2018-03-08T00:17:27.539Z,787.34
2018-03-08T00:17:31.766Z,787.37
2018-03-08T00:17:35.882Z,787.34
2018-03-08T00:17:40.102Z,787.33
2018-03-08T00:17:44.124Z,787.36
2018-03-08T00:17:48.237Z,787.32
2018-03-08T00:17:52.247Z,787.31
2018-03-08T00:17:56.357Z,787.35
2018-03-08T00:18:00.686Z,787.32
2018-03-08T00:18:04.907Z,787.31
2018-03-08T00:18:09.028Z,787.3
2018-03-08T00:18:13.035Z,787.24
2018-03-08T00:18:17.257Z,787.25
2018-03-08T00:18:21.480Z,787.29
2018-03-08T00:18:25.596Z,787.28
2018-03-08T00:18:29.713Z,787.3
2018-03-08T00:18:33.977Z,787.28
2018-03-08T00:18:37.984Z,787.28
2018-03-08T00:18:42.206Z,787.3
2018-03-08T00:18:46.382Z,787.31
2018-03-08T00:18:50.612Z,787.28
2018-03-08T00:18:54.624Z,787.29
2018-03-08T00:18:58.733Z,787.29
2018-03-08T00:19:02.963Z,787.25
2018-03-08T00:19:07.088Z,787.28
2018-03-08T00:19:11.330Z,787.27
2018-03-08T00:19:15.561Z,787.26
2018-03-08T00:19:19.580Z,787.28
2018-03-08T00:19:23.795Z,787.23
2018-03-08T00:19:27.829Z,787.29
2018-03-08T00:19:32.156Z,787.21
2018-03-08T00:19:36.378Z,787.21
2018-03-08T00:19:40.493Z,787.21
2018-03-08T00:19:44.387Z,787.25
2018-03-08T00:19:48.395Z,787.27
2018-03-08T00:19:52.735Z,787.27
2018-03-08T00:19:56.957Z,787.25
2018-03-08T00:20:00.957Z,787.27
2018-03-08T00:20:05.065Z,787.28
2018-03-08T00:20:09.179Z,787.25
2018-03-08T00:20:13.289Z,787.26
2018-03-08T00:20:17.403Z,787.24
2018-03-08T00:20:21.405Z,787.28
2018-03-08T00:20:25.298Z,787.25
2018-03-08T00:20:29.411Z,787.26
2018-03-08T00:20:33.636Z,787.28
2018-03-08T00:20:37.739Z,787.26
2018-03-08T00:20:41.639Z,787.25
2018-03-08T00:20:45.539Z,787.28
2018-03-08T00:20:49.764Z,787.28
2018-03-08T00:20:53.885Z,787.3
2018-03-08T00:20:58.108Z,787.28
2018-03-08T00:21:02.422Z,787.29
2018-03-08T00:21:06.536Z,787.28
2018-03-08T00:21:10.651Z,787.3
2018-03-08T00:21:14.982Z,787.3
2018-03-08T00:21:18.985Z,787.31
2018-03-08T00:21:23.100Z,787.3
2018-03-08T00:21:27.219Z,787.3
2018-03-08T00:21:31.554Z,787.29
2018-03-08T00:21:35.466Z,787.29
2018-03-08T00:21:39.688Z,787.26
2018-03-08T00:21:43.817Z,787.29
2018-03-08T00:21:47.823Z,787.29
2018-03-08T00:21:51.724Z,787.29
2018-03-08T00:21:55.838Z,787.3
2018-03-08T00:21:59.842Z,787.29
2018-03-08T00:22:04.054Z,787.3
2018-03-08T00:22:08.172Z,787.29
2018-03-08T00:22:12.077Z,787.3
2018-03-08T00:22:16.189Z,787.25
2018-03-08T00:22:20.297Z,787.24
2018-03-08T00:22:24.624Z,787.25
2018-03-08T00:22:28.843Z,787.29
2018-03-08T00:22:32.736Z,787.3
2018-03-08T00:22:37.063Z,787.33
2018-03-08T00:22:41.175Z,787.37
2018-03-08T00:22:45.401Z,787.32
2018-03-08T00:22:49.308Z,787.34
2018-03-08T00:22:53.438Z,787.31
2018-03-08T00:22:57.765Z,787.32
2018-03-08T00:23:01.874Z,787.27
2018-03-08T00:23:05.872Z,787.32
2018-03-08T00:23:09.987Z,787.28
2018-03-08T00:23:14.113Z,787.33
2018-03-08T00:23:18.236Z,787.29
2018-03-08T00:23:22.356Z,787.36
2018-03-08T00:23:26.681Z,787.34
2018-03-08T00:23:30.905Z,787.34
2018-03-08T00:23:35.125Z,787.32
2018-03-08T00:23:39.130Z,787.35
2018-03-08T00:23:43.136Z,787.32
2018-03-08T00:23:47.250Z,787.28
2018-03-08T00:23:51.253Z,787.27
2018-03-08T00:23:55.262Z,787.29
2018-03-08T00:23:59.053Z,787.33
2018-03-08T00:24:03.457Z,787.33
2018-03-08T00:24:07.580Z,787.37
2018-03-08T00:24:11.800Z,787.35
2018-03-08T00:24:15.696Z,787.38
2018-03-08T00:24:19.920Z,787.36
2018-03-08T00:24:24.030Z,787.37
2018-03-08T00:24:28.384Z,787.36
2018-03-08T00:24:32.604Z,787.35
2018-03-08T00:24:36.825Z,787.35
2018-03-08T00:24:40.946Z,787.36
2018-03-08T00:24:45.174Z,787.34
2018-03-08T00:24:49.070Z,787.34
2018-03-08T00:24:53.286Z,787.37
2018-03-08T00:24:57.183Z,787.36
2018-03-08T00:25:01.411Z,787.33
2018-03-08T00:25:05.763Z,787.35
2018-03-08T00:25:09.881Z,787.34
2018-03-08T00:25:13.998Z,787.36
2018-03-08T00:25:18.325Z,787.34
2018-03-08T00:25:22.445Z,787.35
2018-03-08T00:25:26.461Z,787.37
2018-03-08T00:25:30.471Z,787.34
2018-03-08T00:25:34.484Z,787.37
2018-03-08T00:25:38.594Z,787.37
2018-03-08T00:25:42.816Z,787.32
2018-03-08T00:25:46.725Z,787.33
2018-03-08T00:25:50.515Z,787.35
2018-03-08T00:25:54.735Z,787.34
2018-03-08T00:25:58.956Z,787.34
2018-03-08T00:26:03.117Z,787.34
2018-03-08T00:26:07.336Z,787.31
2018-03-08T00:26:11.445Z,787.31
2018-03-08T00:26:15.455Z,787.29
2018-03-08T00:26:19.468Z,787.32
2018-03-08T00:26:23.486Z,787.32
2018-03-08T00:26:27.711Z,787.29
2018-03-08T00:26:31.935Z,787.32
2018-03-08T00:26:35.835Z,787.32
2018-03-08T00:26:39.948Z,787.34
2018-03-08T00:26:44.062Z,787.34
2018-03-08T00:26:48.183Z,787.32
2018-03-08T00:26:52.296Z,787.32
2018-03-08T00:26:56.304Z,787.32
2018-03-08T00:27:00.526Z,787.34
2018-03-08T00:27:04.688Z,787.32
2018-03-08T00:27:08.802Z,787.31
2018-03-08T00:27:12.696Z,787.3
2018-03-08T00:27:16.817Z,787.31
2018-03-08T00:27:21.041Z,787.31
2018-03-08T00:27:24.940Z,787.29
2018-03-08T00:27:29.050Z,787.33
2018-03-08T00:27:33.267Z,787.3
2018-03-08T00:27:37.382Z,787.32
2018-03-08T00:27:41.605Z,787.3
2018-03-08T00:27:45.752Z,787.31
2018-03-08T00:27:49.873Z,787.32
2018-03-08T00:27:53.985Z,787.26
2018-03-08T00:27:57.993Z,787.32
2018-03-08T00:28:02.011Z,787.26
2018-03-08T00:28:06.022Z,787.24
2018-03-08T00:28:10.253Z,787.27
2018-03-08T00:28:14.369Z,787.3
2018-03-08T00:28:18.599Z,787.29
2018-03-08T00:28:22.722Z,787.28
2018-03-08T00:28:26.947Z,787.27
2018-03-08T00:28:31.176Z,787.27
2018-03-08T00:28:35.182Z,787.25
2018-03-08T00:28:39.406Z,787.29
2018-03-08T00:28:43.519Z,787.25
2018-03-08T00:28:47.533Z,787.31
2018-03-08T00:28:51.747Z,787.25
2018-03-08T00:28:55.858Z,787.28
2018-03-08T00:29:00.189Z,787.24
2018-03-08T00:29:04.538Z,787.27
2018-03-08T00:29:08.572Z,787.26
2018-03-08T00:29:12.484Z,787.28
2018-03-08T00:29:16.595Z,787.26
2018-03-08T00:29:20.826Z,787.24
2018-03-08T00:29:24.832Z,787.26
2018-03-08T00:29:28.621Z,787.23
2018-03-08T00:29:32.954Z,787.22
2018-03-08T00:29:37.178Z,787.26
2018-03-08T00:29:41.074Z,787.23
2018-03-08T00:29:45.293Z,787.24
2018-03-08T00:29:49.514Z,787.21
2018-03-08T00:29:53.754Z,787.22
2018-03-08T00:29:57.765Z,787.22
2018-03-08T00:30:02.136Z,787.21
2018-03-08T00:30:06.506Z,787.21
2018-03-08T00:30:10.516Z,787.2
2018-03-08T00:30:14.523Z,787.19
2018-03-08T00:30:18.646Z,787.23
2018-03-08T00:30:22.865Z,787.23
2018-03-08T00:30:27.195Z,787.19
2018-03-08T00:30:31.520Z,787.18
2018-03-08T00:30:35.529Z,787.2
2018-03-08T00:30:39.759Z,787.16
2018-03-08T00:30:44.089Z,787.18
2018-03-08T00:30:48.204Z,787.17
2018-03-08T00:30:51.992Z,787.16
2018-03-08T00:30:56.317Z,787.17
2018-03-08T00:31:00.429Z,787.16
2018-03-08T00:31:04.564Z,787.13
2018-03-08T00:31:08.693Z,787.15
2018-03-08T00:31:12.924Z,787.16
2018-03-08T00:31:16.973Z,787.15
2018-03-08T00:31:21.086Z,787.13
2018-03-08T00:31:25.087Z,787.12
2018-03-08T00:31:29.099Z,787.12
2018-03-08T00:31:33.099Z,787.14
2018-03-08T00:31:37.321Z,787.1
2018-03-08T00:31:41.546Z,787.06
2018-03-08T00:31:45.663Z,787.09
2018-03-08T00:31:49.873Z,787.11
2018-03-08T00:31:53.772Z,787.08
2018-03-08T00:31:57.984Z,787.1
2018-03-08T00:32:02.263Z,787.09
2018-03-08T00:32:06.166Z,787.1
2018-03-08T00:32:10.390Z,787.09
2018-03-08T00:32:14.397Z,787.09
2018-03-08T00:32:18.621Z,787.1
2018-03-08T00:32:22.639Z,787.1
2018-03-08T00:32:26.863Z,787.06
2018-03-08T00:32:30.977Z,787.09
2018-03-08T00:32:35.085Z,787.08
2018-03-08T00:32:39.308Z,787.07
2018-03-08T00:32:43.422Z,787.07
2018-03-08T00:32:47.649Z,787.07
2018-03-08T00:32:51.873Z,787.04
2018-03-08T00:32:55.989Z,787.08
2018-03-08T00:33:00.102Z,787.05
2018-03-08T00:33:04.105Z,787.06
2018-03-08T00:33:08.108Z,787.05
2018-03-08T00:33:12.231Z,787.05
2018-03-08T00:33:16.249Z,787.08
2018-03-08T00:33:20.251Z,787.07
2018-03-08T00:33:24.474Z,787.06
2018-03-08T00:33:28.695Z,787.07
2018-03-08T00:33:32.814Z,787.06
2018-03-08T00:33:37.031Z,787.05
2018-03-08T00:33:41.253Z,787.03
2018-03-08T00:33:45.264Z,787.02
2018-03-08T00:33:49.601Z,787
2018-03-08T00:33:53.612Z,787.01
2018-03-08T00:33:57.834Z,787
2018-03-08T00:34:01.750Z,787.02
2018-03-08T00:34:05.964Z,787.02
2018-03-08T00:34:09.971Z,786.96
2018-03-08T00:34:14.203Z,786.96
2018-03-08T00:34:18.212Z,786.96
2018-03-08T00:34:22.435Z,786.98
2018-03-08T00:34:26.763Z,787.02
2018-03-08T00:34:30.880Z,786.99
2018-03-08T00:34:34.998Z,786.99
2018-03-08T00:34:39.215Z,786.98
2018-03-08T00:34:43.327Z,787
2018-03-08T00:34:47.442Z,787.01
2018-03-08T00:34:51.566Z,786.99
2018-03-08T00:34:55.798Z,787.04
2018-03-08T00:34:59.807Z,787.02
2018-03-08T00:35:03.918Z,786.96
2018-03-08T00:35:07.939Z,786.95
2018-03-08T00:35:12.166Z,786.95
2018-03-08T00:35:16.170Z,786.96
2018-03-08T00:35:20.222Z,786.97
2018-03-08T00:35:24.123Z,786.98
2018-03-08T00:35:28.540Z,786.97
2018-03-08T00:35:32.671Z,786.94
2018-03-08T00:35:37.039Z,786.98
2018-03-08T00:35:41.524Z,786.97
2018-03-08T00:35:45.642Z,786.97
2018-03-08T00:35:49.955Z,786.94
2018-03-08T00:35:54.098Z,786.97
2018-03-08T00:35:58.105Z,786.96
2018-03-08T00:36:02.278Z,786.93
2018-03-08T00:36:06.178Z,786.93
2018-03-08T00:36:10.293Z,786.94
2018-03-08T00:36:14.518Z,786.94
2018-03-08T00:36:18.521Z,786.9
2018-03-08T00:36:22.528Z,786.94
2018-03-08T00:36:26.435Z,786.92
2018-03-08T00:36:30.544Z,786.95
2018-03-08T00:36:34.765Z,786.94
2018-03-08T00:36:38.775Z,786.94
2018-03-08T00:36:42.880Z,786.92
2018-03-08T00:36:47.209Z,786.93
2018-03-08T00:36:51.216Z,786.88
2018-03-08T00:36:55.442Z,786.96
2018-03-08T00:36:59.345Z,786.9
2018-03-08T00:37:03.246Z,786.95
2018-03-08T00:37:07.480Z,786.9
2018-03-08T00:37:11.600Z,786.94
2018-03-08T00:37:15.715Z,786.9
2018-03-08T00:37:19.832Z,786.86
2018-03-08T00:37:24.070Z,786.86
2018-03-08T00:37:28.086Z,786.87
2018-03-08T00:37:32.194Z,786.87
2018-03-08T00:37:36.420Z,786.88
2018-03-08T00:37:40.646Z,786.87
2018-03-08T00:37:44.759Z,786.85
2018-03-08T00:37:48.989Z,786.84
2018-03-08T00:37:52.890Z,786.85
2018-03-08T00:37:57.215Z,786.84
2018-03-08T00:38:01.329Z,786.84
2018-03-08T00:38:05.758Z,786.83
2018-03-08T00:38:09.660Z,786.82
2018-03-08T00:38:13.779Z,786.84
2018-03-08T00:38:17.933Z,786.83
2018-03-08T00:38:22.056Z,786.82
2018-03-08T00:38:26.057Z,786.84
2018-03-08T00:38:30.283Z,786.81
2018-03-08T00:38:34.516Z,786.85
2018-03-08T00:38:38.741Z,786.81
2018-03-08T00:38:43.072Z,786.82
2018-03-08T00:38:47.078Z,786.8
2018-03-08T00:38:51.192Z,786.84
2018-03-08T00:38:55.204Z,786.78
2018-03-08T00:38:59.218Z,786.78
2018-03-08T00:39:03.115Z,786.8
2018-03-08T00:39:07.013Z,786.8
2018-03-08T00:39:11.020Z,786.75
2018-03-08T00:39:15.025Z,786.75
2018-03-08T00:39:18.930Z,786.75
2018-03-08T00:39:23.152Z,786.76
2018-03-08T00:39:27.164Z,786.76
2018-03-08T00:39:31.067Z,786.74
2018-03-08T00:39:35.180Z,786.74
2018-03-08T00:39:39.288Z,786.74
2018-03-08T00:39:43.518Z,786.72
2018-03-08T00:39:47.626Z,786.73
2018-03-08T00:39:51.843Z,786.73
2018-03-08T00:39:56.152Z,786.71
2018-03-08T00:40:00.048Z,786.69
2018-03-08T00:40:04.209Z,786.69
2018-03-08T00:40:08.003Z,786.63
2018-03-08T00:40:12.221Z,786.65
2018-03-08T00:40:16.227Z,786.63
2018-03-08T00:40:20.024Z,786.65
2018-03-08T00:40:24.032Z,786.65
2018-03-08T00:40:28.145Z,786.66
2018-03-08T00:40:32.377Z,786.66
2018-03-08T00:40:36.489Z,786.75
2018-03-08T00:40:40.385Z,786.68
2018-03-08T00:40:44.402Z,786.72
2018-03-08T00:40:48.630Z,786.7
2018-03-08T00:40:52.743Z,786.67
2018-03-08T00:40:56.859Z,786.71
2018-03-08T00:41:00.870Z,786.64
2018-03-08T00:41:05.120Z,786.7
2018-03-08T00:41:09.446Z,786.65
2018-03-08T00:41:13.779Z,786.72
2018-03-08T00:41:18.010Z,786.69
2018-03-08T00:41:22.133Z,786.64
2018-03-08T00:41:26.253Z,786.62
2018-03-08T00:41:30.159Z,786.63
2018-03-08T00:41:34.166Z,786.67
2018-03-08T00:41:38.388Z,786.62
2018-03-08T00:41:42.612Z,786.64
2018-03-08T00:41:46.837Z,786.63
2018-03-08T00:41:50.735Z,786.63
2018-03-08T00:41:54.851Z,786.62
2018-03-08T00:41:59.181Z,786.63
2018-03-08T00:42:03.188Z,786.64
2018-03-08T00:42:07.205Z,786.62
2018-03-08T00:42:11.215Z,786.59
2018-03-08T00:42:15.115Z,786.63
2018-03-08T00:42:19.439Z,786.64
2018-03-08T00:42:23.558Z,786.62
2018-03-08T00:42:27.564Z,786.62
2018-03-08T00:42:31.675Z,786.61
2018-03-08T00:42:35.893Z,786.65
2018-03-08T00:42:39.691Z,786.6
2018-03-08T00:42:43.696Z,786.64
2018-03-08T00:42:47.921Z,786.63
2018-03-08T00:42:52.038Z,786.66
2018-03-08T00:42:55.941Z,786.6
2018-03-08T00:43:00.066Z,786.6
2018-03-08T00:43:04.071Z,786.61
2018-03-08T00:43:07.883Z,786.62
2018-03-08T00:43:12.001Z,786.64
2018-03-08T00:43:15.901Z,786.61
2018-03-08T00:43:20.123Z,786.59
2018-03-08T00:43:24.249Z,786.59
2018-03-08T00:43:28.493Z,786.6
2018-03-08T00:43:32.609Z,786.59
2018-03-08T00:43:36.511Z,786.62
2018-03-08T00:43:40.512Z,786.6
2018-03-08T00:43:44.525Z,786.59
2018-03-08T00:43:48.643Z,786.58
2018-03-08T00:43:52.654Z,786.58
2018-03-08T00:43:56.769Z,786.58
2018-03-08T00:44:00.996Z,786.58
2018-03-08T00:44:05.224Z,786.59
2018-03-08T00:44:09.452Z,786.62
2018-03-08T00:44:13.563Z,786.56
2018-03-08T00:44:17.672Z,786.57
2018-03-08T00:44:21.902Z,786.57
2018-03-08T00:44:25.800Z,786.57
2018-03-08T00:44:29.808Z,786.57
2018-03-08T00:44:33.926Z,786.54
2018-03-08T00:44:37.826Z,786.56
2018-03-08T00:44:42.049Z,786.53
2018-03-08T00:44:46.270Z,786.54
2018-03-08T00:44:50.385Z,786.54
2018-03-08T00:44:54.604Z,786.54
2018-03-08T00:44:58.853Z,786.53
2018-03-08T00:45:03.018Z,786.54
2018-03-08T00:45:07.361Z,786.53
2018-03-08T00:45:11.375Z,786.55
2018-03-08T00:45:15.705Z,786.53
2018-03-08T00:45:19.931Z,786.52
2018-03-08T00:45:24.049Z,786.5
2018-03-08T00:45:28.164Z,786.47
2018-03-08T00:45:32.266Z,786.53
2018-03-08T00:45:36.480Z,786.51
2018-03-08T00:45:40.696Z,786.51
2018-03-08T00:45:44.831Z,786.53
2018-03-08T00:45:48.836Z,786.51
2018-03-08T00:45:52.956Z,786.52
2018-03-08T00:45:57.069Z,786.5
2018-03-08T00:46:01.072Z,786.52
2018-03-08T00:46:05.183Z,786.47
2018-03-08T00:46:09.305Z,786.49
2018-03-08T00:46:13.425Z,786.53
2018-03-08T00:46:17.759Z,786.52
2018-03-08T00:46:21.663Z,786.5
2018-03-08T00:46:25.883Z,786.5
2018-03-08T00:46:30.210Z,786.45
2018-03-08T00:46:34.435Z,786.47
2018-03-08T00:46:38.441Z,786.49
2018-03-08T00:46:42.658Z,786.48
2018-03-08T00:46:46.768Z,786.5
2018-03-08T00:46:50.666Z,786.49
2018-03-08T00:46:54.673Z,786.5
2018-03-08T00:46:58.888Z,786.48
2018-03-08T00:47:03.356Z,786.5
2018-03-08T00:47:07.264Z,786.51
2018-03-08T00:47:11.382Z,786.47
2018-03-08T00:47:15.280Z,786.47
2018-03-08T00:47:19.287Z,786.46
2018-03-08T00:47:23.517Z,786.46
2018-03-08T00:47:27.646Z,786.48
2018-03-08T00:47:31.761Z,786.44
2018-03-08T00:47:35.981Z,786.49
2018-03-08T00:47:40.310Z,786.44
2018-03-08T00:47:44.208Z,786.45
2018-03-08T00:47:48.535Z,786.45
2018-03-08T00:47:52.758Z,786.47
2018-03-08T00:47:56.871Z,786.46
2018-03-08T00:48:00.782Z,786.44
2018-03-08T00:48:04.788Z,786.42
2018-03-08T00:48:08.694Z,786.44
2018-03-08T00:48:12.808Z,786.43
2018-03-08T00:48:16.923Z,786.42
2018-03-08T00:48:20.933Z,786.42
2018-03-08T00:48:24.614Z,786.42
2018-03-08T00:48:28.677Z,786.43
2018-03-08T00:48:32.782Z,786.4
2018-03-08T00:48:37.106Z,786.41
2018-03-08T00:48:41.115Z,786.34
2018-03-08T00:48:45.118Z,786.38
2018-03-08T00:48:49.387Z,786.42
2018-03-08T00:48:53.508Z,786.4
2018-03-08T00:48:57.726Z,786.41
2018-03-08T00:49:01.951Z,786.39
2018-03-08T00:49:05.961Z,786.4
2018-03-08T00:49:09.860Z,786.38
2018-03-08T00:49:13.861Z,786.4
2018-03-08T00:49:17.981Z,786.41
2018-03-08T00:49:22.099Z,786.36
2018-03-08T00:49:26.333Z,786.33
2018-03-08T00:49:30.345Z,786.35
2018-03-08T00:49:34.130Z,786.32
2018-03-08T00:49:38.354Z,786.35
2018-03-08T00:49:42.467Z,786.32
2018-03-08T00:49:46.685Z,786.35
2018-03-08T00:49:50.696Z,786.32
2018-03-08T00:49:54.810Z,786.36
2018-03-08T00:49:58.917Z,786.39
2018-03-08T00:50:03.362Z,786.38
2018-03-08T00:50:07.595Z,786.38
2018-03-08T00:50:11.813Z,786.35
2018-03-08T00:50:15.821Z,786.35
2018-03-08T00:50:19.834Z,786.36
2018-03-08T00:50:24.055Z,786.36
2018-03-08T00:50:28.282Z,786.33
2018-03-08T00:50:32.400Z,786.36
2018-03-08T00:50:36.508Z,786.35
2018-03-08T00:50:40.626Z,786.3
2018-03-08T00:50:44.642Z,786.33
2018-03-08T00:50:48.760Z,786.34
2018-03-08T00:50:52.971Z,786.32
2018-03-08T00:50:56.981Z,786.33
2018-03-08T00:51:00.994Z,786.31
2018-03-08T00:51:05.154Z,786.32
2018-03-08T00:51:09.163Z,786.34
2018-03-08T00:51:13.173Z,786.31
2018-03-08T00:51:17.391Z,786.29
2018-03-08T00:51:21.499Z,786.27
2018-03-08T00:51:25.926Z,786.27
2018-03-08T00:51:30.036Z,786.3
2018-03-08T00:51:34.157Z,786.28